CDT,Max TemperatureF,Mean TemperatureF,Min TemperatureF,Max Dew PointF,MeanDew PointF,Min DewpointF,Max Humidity, Mean Humidity, Min Humidity, Max Sea Level PressureIn, Mean Sea Level PressureIn, Min Sea Level PressureIn, Max VisibilityMiles, Mean VisibilityMiles, Min VisibilityMiles, Max Wind SpeedMPH, Mean Wind SpeedMPH, Max Gust SpeedMPH,PrecipitationIn, CloudCover, Events, WindDirDegrees
2013-9-1,83,72,59,70,64,57,100,80,60,29.84,29.79,29.71,10,8,0,10,3,21,0.00,5,Fog,261
2013-9-2,70,62,53,58,55,50,94,75,55,30.01,29.96,29.84,10,10,10,13,5,18,0.00,4,,342
2013-9-3,73,59,45,53,50,45,98,77,42,30.11,30.05,30.01,10,10,10,9,1,,0.00,0,,257
2013-9-4,81,64,48,64,56,47,97,78,46,30.14,30.09,30.04,10,9,1,9,2,,0.00,0,,244
2013-9-5,72,62,50,62,54,47,93,71,50,30.29,30.23,30.14,10,10,10,15,6,20,0.00,3,,91
2013-9-6,85,65,46,66,57,44,95,74,50,30.23,30.12,29.99,10,10,10,12,3,,0.00,1,,186
2013-9-7,87,76,66,73,66,62,93,78,54,30.00,29.94,29.89,10,10,7,16,5,22,0.00,2,Rain-Thunderstorm,185
2013-9-8,71,66,61,65,62,58,90,84,76,30.08,30.03,29.97,10,10,10,17,9,22,0.00,6,,70
2013-9-9,89,76,63,75,69,62,98,79,59,29.98,29.86,29.79,10,9,3,13,5,17,0.00,1,Thunderstorm,170
2013-9-10,94,82,70,70,64,60,78,57,35,29.95,29.91,29.83,10,10,10,20,8,26,0.00,1,Rain,218
2013-9-11,81,73,65,68,64,61,98,77,50,30.08,30.01,29.96,10,10,10,10,4,,0.03,2,Rain-Thunderstorm,254
2013-9-12,74,64,55,63,54,45,99,71,43,30.14,30.03,29.98,10,9,0,17,5,24,0.00,3,Fog,340
2013-9-13,63,53,43,45,41,35,94,67,36,30.23,30.18,30.14,10,10,10,12,6,17,0.00,0,,14
2013-9-14,70,53,37,47,43,36,96,67,40,30.17,30.10,30.00,10,10,5,12,2,,0.00,0,,203
2013-9-15,60,56,52,56,52,45,99,88,63,30.24,30.06,30.00,10,9,3,15,3,21,0.36,6,Rain,79
2013-9-16,63,52,41,50,43,39,94,74,48,30.40,30.34,30.24,10,10,10,12,7,17,0.00,2,,41
2013-9-17,70,54,39,55,48,38,98,79,52,30.35,30.25,30.10,10,10,10,10,3,16,0.01,2,Rain,142
2013-9-18,78,68,57,66,60,54,96,82,62,30.10,29.99,29.90,10,10,7,17,7,23,0.07,4,Rain,165
2013-9-19,83,74,65,73,68,62,99,89,60,29.91,29.84,29.71,10,9,2,17,7,31,0.86,4,Rain-Thunderstorm,172
2013-9-20,72,64,55,65,60,51,99,83,60,29.84,29.79,29.73,10,10,7,17,8,24,0.00,6,,255
2013-9-21,58,52,45,53,46,43,97,82,60,29.96,29.89,29.83,10,10,10,14,6,21,0.00,4,,307
2013-9-22,62,50,38,45,41,37,99,76,47,30.08,30.03,29.96,10,10,10,7,1,,0.00,0,,51
2013-9-23,66,47,41,47,44,40,98,93,79,30.09,30.07,30.04,10,10,10,6,3,,0.00,0,,91
2013-9-24,70,57,45,53,49,44,99,81,50,30.06,30.02,29.97,10,8,4,10,3,16,0.00,0,,100
2013-9-25,69,55,41,57,48,40,99,82,53,30.01,29.98,29.95,10,7,0,10,2,,0.00,1,Fog,87
2013-9-26,74,57,41,54,47,41,100,82,47,30.09,30.06,30.02,10,7,0,7,2,,0.00,2,Fog,113
2013-9-27,79,63,48,55,52,46,98,73,39,30.16,30.10,30.06,10,9,5,13,5,17,0.00,0,,130
2013-9-28,80,67,53,66,56,50,97,74,47,30.06,29.96,29.83,10,9,4,22,9,31,0.50,3,Rain,169
2013-9-29,68,55,42,52,46,40,100,76,36,30.08,30.02,29.97,10,9,0,5,1,,0.01,1,Fog,237
2013-9-30,72,56,41,48,44,41,97,72,39,30.01,29.92,29.83,10,10,10,14,2,18,0.00,0,,165